Time;durP1;ratioP1;P1;durP2;ratioP2;P2;SDS_P1;SDS_P2;PMS_P1;PMS_P2;Temp;Humidity;BMP_temperature;BMP_pressure;BME280_temperature;BME280_humidity;BME280_pressure;Samples;Min_cycle;Max_cycle;Signal;HPM_P1;HPM_P2
2022/06/05 00:01:18;;;;;;;6.25;5.07;;;;;;;20.74;52.07;101425.06;3580277;40;20064;-62
2022/06/05 00:04:02;;;;;;;7.05;5.30;;;;;;;20.69;51.19;101432.84;3581539;40;20080;-63
2022/06/05 00:07:07;;;;;;;6.57;5.40;;;;;;;20.71;51.56;101434.44;3579813;40;20058;-63
2022/06/05 00:10:13;;;;;;;6.88;5.57;;;;;;;20.69;50.94;101430.97;3579083;40;20334;-62
2022/06/05 00:13:14;;;;;;;7.32;5.38;;;;;;;20.64;51.71;101417.72;3580574;40;20553;-63
2022/06/05 00:15:40;;;;;;;8.10;5.15;;;;;;;20.63;51.86;101409.69;3578560;40;20092;-62
2022/06/05 00:18:05;;;;;;;7.25;4.90;;;;;;;20.61;51.47;101412.59;3587482;39;20068;-63
2022/06/05 00:20:31;;;;;;;6.93;5.53;;;;;;;20.52;52.15;101397.06;3580886;40;20052;-62
2022/06/05 00:22:58;;;;;;;6.20;5.22;;;;;;;20.54;51.77;101405.97;3580093;40;20052;-62
2022/06/05 00:25:50;;;;;;;6.50;5.40;;;;;;;20.51;52.27;101406.25;3579728;40;20396;-61
2022/06/05 00:28:16;;;;;;;5.65;5.07;;;;;;;20.48;51.73;101392.84;3579618;40;20060;-63
2022/06/05 00:31:00;;;;;;;7.45;4.85;;;;;;;20.51;52.21;101398.06;3579412;40;20068;-63
2022/06/05 00:33:38;;;;;;;4.95;4.50;;;;;;;20.49;52.24;101399.16;3582257;40;20043;-62
2022/06/05 00:36:26;;;;;;;7.35;5.28;;;;;;;20.46;51.59;101386.69;3579823;40;20059;-63
2022/06/05 00:39:15;;;;;;;5.43;4.93;;;;;;;20.35;52.27;101374.03;3580347;40;20095;-63
2022/06/05 00:42:08;;;;;;;6.82;5.00;;;;;;;20.27;52.40;101356.69;3579754;40;20070;-62
2022/06/05 00:44:44;;;;;;;5.88;5.20;;;;;;;20.31;52.13;101380.81;3578395;40;20122;-62
2022/06/05 00:47:16;;;;;;;7.05;5.25;;;;;;;20.26;51.79;101379.50;3581725;40;20048;-62
2022/06/05 00:49:52;;;;;;;6.43;5.82;;;;;;;20.18;52.47;101361.13;3581093;40;20067;-62
2022/06/05 00:52:21;;;;;;;5.85;5.22;;;;;;;20.18;52.06;101377.50;3581482;40;20068;-62
2022/06/05 00:54:47;;;;;;;5.97;5.38;;;;;;;20.17;52.76;101371.19;3579454;40;20088;-63
2022/06/05 00:57:15;;;;;;;8.13;5.40;;;;;;;20.12;52.27;101359.84;3580927;40;20048;-62
2022/06/05 00:59:46;;;;;;;5.80;5.30;;;;;;;20.11;52.33;101376.38;3580058;40;20430;-62
2022/06/05 01:02:13;;;;;;;8.38;5.93;;;;;;;20.09;53.15;101379.22;3580078;40;20347;-63
2022/06/05 01:04:51;;;;;;;8.23;5.82;;;;;;;19.57;52.89;101294.00;3579421;40;20056;-62
2022/06/05 01:07:20;;;;;;;7.63;6.07;;;;;;;20.06;52.77;101374.06;3580204;40;20085;-62
2022/06/05 01:09:50;;;;;;;7.22;5.85;;;;;;;20.05;53.15;101390.59;3579057;40;20064;-62
2022/06/05 01:13:05;;;;;;;10.88;6.05;;;;;;;20.05;52.96;101383.25;3581723;40;20304;-62
2022/06/05 01:15:53;;;;;;;6.93;6.25;;;;;;;19.93;53.32;101370.75;3579013;40;20044;-62
2022/06/05 01:18:24;;;;;;;6.78;6.07;;;;;;;20.01;52.83;101398.16;3579903;40;20052;-62
2022/06/05 01:21:18;;;;;;;6.15;5.60;;;;;;;19.97;53.24;101451.31;3577903;40;20387;-62
2022/06/05 01:23:43;;;;;;;9.13;5.60;;;;;;;;;;3578981;40;20075;-62
2022/06/05 01:26:25;;;;;;;6.63;5.70;;;;;;;19.95;53.87;101406.94;3580347;40;21007;-62
2022/06/05 01:29:04;;;;;;;5.78;5.10;;;;;;;19.93;53.73;101445.28;3579376;40;20384;-63
2022/06/05 01:31:39;;;;;;;5.97;4.75;;;;;;;19.96;54.42;101455.06;3578910;40;20052;-62
2022/06/05 01:34:22;;;;;;;7.38;5.07;;;;;;;20.03;54.51;101423.47;3577724;40;20075;-62
2022/06/05 01:37:03;;;;;;;6.13;5.10;;;;;;;20.03;55.03;101374.34;3579519;40;20093;-63
2022/06/05 01:39:44;;;;;;;6.72;5.15;;;;;;;19.94;55.28;101386.09;3579904;40;20190;-63
2022/06/05 01:42:33;;;;;;;5.70;5.20;;;;;;;20.04;55.08;101438.81;3579849;40;20068;-62
2022/06/05 01:45:08;;;;;;;5.80;5.25;;;;;;;20.10;55.47;101407.38;3577320;40;20335;-62
2022/06/05 01:47:42;;;;;;;7.53;5.40;;;;;;;20.13;54.70;101404.38;3579175;40;20395;-62
2022/06/05 01:50:20;;;;;;;6.00;5.15;;;;;;;20.05;55.04;101366.88;3579262;40;20058;-63
2022/06/05 01:53:29;;;;;;;6.85;5.38;;;;;;;20.12;55.17;101376.22;3579275;40;20072;-61
2022/06/05 01:56:05;;;;;;;6.38;5.50;;;;;;;20.10;55.23;101382.81;3577173;40;20092;-62
2022/06/05 01:58:48;;;;;;;5.85;5.35;;;;;;;20.13;55.40;101364.28;3579881;40;20111;-62
2022/06/05 02:01:21;;;;;;;6.15;5.63;;;;;;;20.14;53.96;101357.84;3578556;40;20048;-62
2022/06/05 02:04:01;;;;;;;5.82;5.00;;;;;;;20.11;54.40;101349.06;3578690;40;20633;-63
2022/06/05 02:06:39;;;;;;;5.65;5.15;;;;;;;20.14;54.59;101348.78;3580005;40;20387;-63
2022/06/05 02:09:33;;;;;;;5.93;5.30;;;;;;;20.12;55.03;101327.06;3579199;40;20069;-62
2022/06/05 02:12:02;;;;;;;6.03;5.00;;;;;;;20.12;55.71;101328.94;3578934;40;20506;-64
2022/06/05 02:14:29;;;;;;;5.93;5.20;;;;;;;20.04;55.96;101318.72;3580233;40;20052;-62
2022/06/05 02:16:55;;;;;;;6.57;5.88;;;;;;;19.97;56.45;101314.88;3579426;40;20052;-62
2022/06/05 02:19:22;;;;;;;10.68;5.72;;;;;;;19.88;56.45;101300.22;3580601;40;20121;-62
2022/06/05 02:21:54;;;;;;;7.18;5.78;;;;;;;19.69;56.99;101273.81;3578330;40;20071;-62
2022/06/05 02:24:20;;;;;;;6.82;5.90;;;;;;;19.71;56.42;101287.31;3580403;40;20067;-62
2022/06/05 02:26:45;;;;;;;6.85;6.18;;;;;;;19.39;56.29;101250.22;3579198;40;20056;-62
2022/06/05 02:29:25;;;;;;;8.10;5.95;;;;;;;19.55;56.61;101279.66;3577450;40;20048;-62
2022/06/05 02:32:02;;;;;;;6.90;6.22;;;;;;;19.51;56.97;101267.31;3579299;40;20126;-62
2022/06/05 02:34:59;;;;;;;8.90;6.70;;;;;;;19.44;58.32;101256.13;3580191;40;20091;-63
2022/06/05 02:37:49;;;;;;;10.18;7.57;;;;;;;19.23;60.45;101255.34;3574971;40;20155;-63
2022/06/05 02:40:35;;;;;;;8.13;7.30;;;;;;;19.03;61.57;101243.56;3579268;40;20068;-64
2022/06/05 02:43:44;;;;;;;8.13;7.32;;;;;;;18.92;62.97;101238.22;3578673;40;20118;-63
2022/06/05 02:46:24;;;;;;;8.93;6.93;;;;;;;18.81;62.17;101221.97;3579756;40;20056;-62
2022/06/05 02:49:17;;;;;;;8.20;7.40;;;;;;;18.69;62.88;101215.75;3579039;40;20192;-65
2022/06/05 02:51:45;;;;;;;8.15;7.07;;;;;;;18.59;62.84;101213.00;3578917;40;20125;-67
2022/06/05 02:54:23;;;;;;;8.07;7.38;;;;;;;18.55;64.36;101206.06;3579258;40;20060;-67
2022/06/05 02:56:49;;;;;;;9.65;7.50;;;;;;;18.42;63.32;101205.44;3579572;40;20064;-68
2022/06/05 02:59:15;;;;;;;8.27;7.47;;;;;;;18.38;63.30;101199.41;3578166;40;20075;-68
2022/06/05 03:04:24;;;;;;;8.05;7.22;;;;;;;18.30;62.17;101193.81;3579171;40;20355;-68
2022/06/05 03:06:50;;;;;;;9.38;6.93;;;;;;;18.27;61.57;101200.38;3578107;40;20052;-69
2022/06/05 03:09:16;;;;;;;7.57;6.72;;;;;;;18.26;62.72;101190.47;3579504;40;20603;-68
2022/06/05 03:11:42;;;;;;;7.70;6.90;;;;;;;18.23;61.20;101196.19;3579258;40;20080;-67
2022/06/05 03:14:08;;;;;;;9.02;6.85;;;;;;;18.20;61.18;101188.28;3579161;40;20068;-70
2022/06/05 03:16:34;;;;;;;8.93;6.97;;;;;;;18.20;61.23;101191.00;3579715;40;20057;-70
2022/06/05 03:19:01;;;;;;;7.70;6.90;;;;;;;18.22;61.54;101193.63;3578843;40;20068;-69
2022/06/05 03:21:34;;;;;;;7.63;6.82;;;;;;;18.21;60.90;101192.75;3578223;40;20041;-68
2022/06/05 03:24:01;;;;;;;7.75;6.88;;;;;;;18.18;61.04;101203.91;3579427;40;20056;-68
2022/06/05 03:26:27;;;;;;;7.70;6.90;;;;;;;18.22;60.59;101204.50;3578090;40;20383;-69
2022/06/05 03:28:53;;;;;;;8.88;6.95;;;;;;;18.16;60.95;101205.03;3577277;40;20056;-68
2022/06/05 03:31:18;;;;;;;8.63;6.38;;;;;;;18.14;61.07;101220.63;3577857;40;20070;-68
2022/06/05 03:33:44;;;;;;;9.57;7.22;;;;;;;18.11;61.05;101216.34;3580591;40;20415;-68
2022/06/05 03:36:13;;;;;;;9.32;6.53;;;;;;;18.10;60.06;101222.75;3585189;39;20060;-68
2022/06/05 03:38:40;;;;;;;13.18;6.97;;;;;;;18.06;61.50;101221.31;3579796;40;20070;-70
2022/06/05 03:41:08;;;;;;;7.78;6.80;;;;;;;18.05;61.17;101215.00;3580675;40;20041;-68
2022/06/05 03:43:36;;;;;;;7.88;6.93;;;;;;;18.06;60.49;101222.16;3580073;40;20049;-67
2022/06/05 03:46:08;;;;;;;8.02;7.18;;;;;;;18.04;59.93;101217.84;3582143;40;20468;-68
2022/06/05 03:48:35;;;;;;;8.60;6.80;;;;;;;18.05;60.07;101209.56;3581522;40;20100;-68
2022/06/05 03:51:10;;;;;;;7.97;7.20;;;;;;;18.07;59.18;101220.31;3581345;40;20056;-67
2022/06/05 03:53:38;;;;;;;10.68;7.57;;;;;;;17.97;60.27;101194.91;3581759;40;20060;-68
2022/06/05 03:56:14;;;;;;;8.02;7.22;;;;;;;18.09;60.41;101221.91;3579086;40;20053;-68
2022/06/05 03:58:40;;;;;;;7.85;7.03;;;;;;;18.02;60.59;101215.28;3580876;40;20052;-67
2022/06/05 04:01:12;;;;;;;8.88;7.55;;;;;;;18.11;59.77;101219.06;3579005;40;20083;-67
2022/06/05 04:03:39;;;;;;;9.77;7.10;;;;;;;18.10;59.40;101228.19;3579609;40;20318;-67
2022/06/05 04:06:08;;;;;;;9.45;6.85;;;;;;;18.10;59.96;101220.91;3579091;40;20067;-67
2022/06/05 04:08:35;;;;;;;11.35;7.25;;;;;;;18.08;59.91;101219.31;3581101;40;20054;-67
2022/06/05 04:11:05;;;;;;;8.63;7.18;;;;;;;18.07;59.70;101214.88;3581843;40;20057;-66
2022/06/05 04:13:31;;;;;;;8.38;7.07;;;;;;;18.07;59.42;101212.13;3581888;40;20591;-67
2022/06/05 04:15:57;;;;;;;7.82;6.82;;;;;;;18.07;59.64;101206.69;3581352;40;20048;-66
2022/06/05 04:18:23;;;;;;;7.78;6.82;;;;;;;18.04;58.89;101205.09;3580955;40;20076;-67
2022/06/05 04:20:48;;;;;;;8.13;7.35;;;;;;;18.03;59.77;101202.53;3581291;40;20068;-67
2022/06/05 04:23:14;;;;;;;7.72;6.85;;;;;;;18.00;59.03;101192.78;3581404;40;20065;-67
2022/06/05 04:25:44;;;;;;;9.38;6.80;;;;;;;18.01;59.22;101190.91;3582529;40;20060;-67
2022/06/05 04:28:11;;;;;;;7.57;6.78;;;;;;;18.05;59.43;101197.81;3580050;40;20072;-66
2022/06/05 04:30:39;;;;;;;7.97;6.90;;;;;;;18.05;59.41;101198.69;3581581;40;20052;-67
2022/06/05 04:33:06;;;;;;;7.50;6.60;;;;;;;18.04;59.12;101198.81;3587579;39;20311;-66
2022/06/05 04:35:34;;;;;;;8.60;7.25;;;;;;;17.92;58.80;101187.16;3580789;40;20052;-64
2022/06/05 04:37:59;;;;;;;9.10;6.75;;;;;;;17.98;59.18;101202.06;3581926;40;20078;-64
2022/06/05 04:40:26;;;;;;;9.00;6.38;;;;;;;17.94;58.84;101197.88;3579521;40;20403;-64
2022/06/05 04:42:53;;;;;;;8.50;6.63;;;;;;;17.98;59.00;101193.91;3580300;40;20077;-64
2022/06/05 04:45:19;;;;;;;12.13;7.28;;;;;;;17.98;59.58;101192.06;3579795;40;20075;-64
2022/06/05 04:47:46;;;;;;;7.90;6.32;;;;;;;18.01;59.30;101186.31;3580777;40;20518;-64
2022/06/05 04:50:12;;;;;;;9.15;6.47;;;;;;;17.95;59.69;101176.00;3580585;40;20064;-63
2022/06/05 04:52:38;;;;;;;9.75;7.15;;;;;;;18.02;58.95;101193.50;3580332;40;20427;-64
2022/06/05 04:55:05;;;;;;;9.35;7.13;;;;;;;18.04;59.66;101191.50;3587876;40;20052;-64
2022/06/05 04:57:30;;;;;;;11.38;6.63;;;;;;;18.04;59.36;101207.81;3580292;40;20071;-64
2022/06/05 04:59:56;;;;;;;7.57;6.47;;;;;;;18.06;59.72;101202.25;3581139;40;20411;-64
2022/06/05 05:02:22;;;;;;;7.25;6.32;;;;;;;18.09;59.04;101204.72;3581848;40;20064;-63
2022/06/05 05:04:47;;;;;;;11.57;7.07;;;;;;;18.06;59.40;101194.09;3580831;40;20052;-62
2022/06/05 05:07:16;;;;;;;8.15;6.38;;;;;;;18.04;58.61;101196.94;3579447;39;20063;-63
2022/06/05 05:09:43;;;;;;;9.65;7.00;;;;;;;18.03;59.28;101208.81;3580728;40;20080;-62
2022/06/05 05:12:12;;;;;;;8.10;7.10;;;;;;;18.05;59.01;101214.16;3579242;40;20055;-63
2022/06/05 05:14:39;;;;;;;7.78;6.88;;;;;;;18.07;59.11;101206.69;3580559;40;20055;-63
2022/06/05 05:17:05;;;;;;;9.85;6.85;;;;;;;17.98;59.40;101194.78;3579808;40;20134;-62
2022/06/05 05:19:31;;;;;;;9.40;6.70;;;;;;;18.07;58.54;101209.41;3578435;40;20068;-62
2022/06/05 05:21:57;;;;;;;9.35;6.70;;;;;;;18.08;58.14;101203.00;3579934;40;20126;-62
2022/06/05 05:24:23;;;;;;;7.70;6.13;;;;;;;18.12;59.23;101207.16;3579564;40;20381;-62
2022/06/05 05:26:49;;;;;;;11.52;6.80;;;;;;;18.13;59.29;101205.31;3579913;40;20154;-62
2022/06/05 05:29:15;;;;;;;7.97;7.03;;;;;;;18.15;59.60;101198.75;3576322;40;20065;-62
2022/06/05 05:31:45;;;;;;;8.93;7.18;;;;;;;18.10;59.33;101201.00;3578964;40;20057;-61
2022/06/05 05:34:13;;;;;;;11.70;6.95;;;;;;;18.24;59.30;101206.09;3577364;40;20049;-62
2022/06/05 05:36:40;;;;;;;10.90;7.05;;;;;;;18.23;59.46;101201.63;3577156;40;20616;-62
2022/06/05 05:42:05;;;;;;;8.10;7.20;;;;;;;18.28;59.52;101199.38;3580109;40;20059;-63
2022/06/05 05:44:39;;;;;;;11.40;7.40;;;;;;;18.31;59.10;101206.41;3578033;40;20063;-61
2022/06/05 05:47:10;;;;;;;9.88;7.20;;;;;;;18.30;59.13;101208.28;3578717;40;20071;-61
2022/06/05 05:49:37;;;;;;;12.25;7.78;;;;;;;18.27;59.33;101203.09;3581073;40;20056;-62
2022/06/05 05:52:04;;;;;;;9.63;7.63;;;;;;;18.27;59.42;101197.66;3579021;40;20072;-61
2022/06/05 05:54:29;;;;;;;8.57;7.07;;;;;;;18.35;58.87;101198.84;3580144;40;20412;-62
2022/06/05 05:56:55;;;;;;;8.75;7.85;;;;;;;18.39;59.75;101194.84;3579657;40;20059;-62
2022/06/05 05:59:21;;;;;;;9.55;7.70;;;;;;;18.37;59.05;101181.38;3577973;40;20122;-62
2022/06/05 06:01:47;;;;;;;8.70;7.47;;;;;;;18.28;59.16;101150.38;3580302;40;20068;-62
2022/06/05 06:04:13;;;;;;;9.70;7.25;;;;;;;18.50;59.42;101175.69;3581282;40;20054;-62
2022/06/05 06:06:43;;;;;;;10.48;8.32;;;;;;;18.49;59.07;101158.50;3580760;40;20084;-62
2022/06/05 06:09:09;;;;;;;9.98;7.63;;;;;;;18.57;58.67;101160.53;3577796;40;20059;-62
2022/06/05 06:11:35;;;;;;;10.07;6.90;;;;;;;18.60;59.95;101165.69;3578828;40;20052;-61
2022/06/05 06:14:00;;;;;;;8.98;7.60;;;;;;;18.67;58.67;101160.53;3577972;40;20060;-60
2022/06/05 06:16:27;;;;;;;9.52;7.50;;;;;;;18.51;58.72;101123.81;3579462;40;20049;-62
2022/06/05 06:18:55;;;;;;;9.35;6.93;;;;;;;18.78;58.44;101144.13;3579319;40;20049;-62
2022/06/05 06:21:23;;;;;;;10.95;6.88;;;;;;;18.83;57.85;101144.56;3578923;40;20048;-61
2022/06/05 06:23:49;;;;;;;9.38;7.47;;;;;;;18.88;58.33;101141.44;3579604;40;20133;-61
2022/06/05 06:26:16;;;;;;;9.30;7.40;;;;;;;18.91;58.03;101135.69;3580279;40;20126;-61
2022/06/05 06:28:42;;;;;;;7.55;6.63;;;;;;;18.90;57.56;101123.94;3580955;40;20056;-62
2022/06/05 06:31:13;;;;;;;7.38;6.65;;;;;;;19.03;58.41;101129.13;3579305;40;20134;-60
2022/06/05 06:33:39;;;;;;;9.02;7.50;;;;;;;19.07;58.59;101114.19;3580284;40;20074;-62
2022/06/05 06:36:12;;;;;;;7.88;7.10;;;;;;;19.14;57.78;101126.25;3577981;40;20409;-62
2022/06/05 06:38:40;;;;;;;8.63;7.40;;;;;;;19.16;58.41;101123.38;3578364;40;20055;-62
2022/06/05 06:41:15;;;;;;;7.88;7.07;;;;;;;19.24;58.24;101110.72;3577190;40;20048;-62
2022/06/05 06:43:43;;;;;;;7.70;6.95;;;;;;;19.32;57.81;101107.31;3578672;40;20056;-62
2022/06/05 06:46:09;;;;;;;8.45;7.13;;;;;;;19.38;57.67;101105.88;3580454;40;20048;-62
2022/06/05 06:48:35;;;;;;;8.15;7.18;;;;;;;19.47;57.59;101099.53;3579326;40;20098;-61
2022/06/05 06:51:04;;;;;;;7.70;6.93;;;;;;;19.57;57.21;101100.38;3577487;40;20048;-62
2022/06/05 06:53:32;;;;;;;7.75;7.05;;;;;;;19.47;56.33;101067.69;3577343;40;20456;-61
2022/06/05 06:55:58;;;;;;;7.93;7.03;;;;;;;19.71;57.34;101118.19;3577351;40;20058;-64
2022/06/05 06:58:23;;;;;;;7.68;6.88;;;;;;;19.76;56.55;101110.44;3577761;40;20862;-62
2022/06/05 07:00:49;;;;;;;8.95;7.10;;;;;;;19.36;57.59;101039.72;3577191;40;20064;-62
2022/06/05 07:03:15;;;;;;;7.85;7.05;;;;;;;19.78;56.33;101099.34;3576704;40;20100;-60
2022/06/05 07:05:42;;;;;;;9.95;7.07;;;;;;;19.95;57.07;101106.78;3575915;40;20103;-60
2022/06/05 07:08:10;;;;;;;9.52;6.85;;;;;;;20.08;56.11;101090.94;3576065;40;20156;-61
2022/06/05 07:10:37;;;;;;;7.72;6.90;;;;;;;20.21;56.43;101085.13;3578776;40;20114;-62
2022/06/05 07:13:04;;;;;;;8.82;6.78;;;;;;;20.32;55.85;101084.91;3585942;40;20053;-60
2022/06/05 07:15:34;;;;;;;9.23;7.43;;;;;;;20.40;55.37;101085.00;3577786;40;20064;-62
2022/06/05 07:18:07;;;;;;;9.10;7.15;;;;;;;20.49;55.24;101083.25;3578546;40;20068;-62
2022/06/05 07:20:40;;;;;;;;;;;;;;;20.62;55.49;101089.22;3578397;39;20053;-61
2022/06/05 07:23:08;;;;;;;10.15;7.53;;;;;;;20.74;55.18;101091.72;3577650;40;19938;-61
2022/06/05 07:25:36;;;;;;;9.15;7.40;;;;;;;20.85;54.96;101080.56;3578621;40;20643;-62
2022/06/05 07:28:03;;;;;;;8.63;7.45;;;;;;;20.91;54.57;101079.09;3578090;40;20060;-60
2022/06/05 07:30:29;;;;;;;7.93;7.07;;;;;;;21.04;54.57;101074.09;3578883;40;20059;-62
2022/06/05 07:32:55;;;;;;;8.38;7.15;;;;;;;21.09;54.62;101067.16;3577275;40;20303;-60
2022/06/05 07:35:22;;;;;;;7.53;6.82;;;;;;;21.19;55.05;101068.94;3578748;40;20076;-61
2022/06/05 07:37:47;;;;;;;7.57;6.82;;;;;;;21.30;54.78;101063.19;3580600;40;20051;-62
2022/06/05 07:40:16;;;;;;;7.95;7.15;;;;;;;21.22;54.23;101038.56;3575773;40;20406;-62
2022/06/05 07:42:43;;;;;;;8.18;7.35;;;;;;;21.49;53.90;101062.19;3577319;40;20052;-61
2022/06/05 07:45:16;;;;;;;7.82;7.13;;;;;;;21.49;53.47;101054.84;3576258;40;20126;-62
2022/06/05 07:47:44;;;;;;;10.07;6.70;;;;;;;21.56;54.31;101057.78;3578084;40;20055;-61
2022/06/05 07:50:12;;;;;;;9.55;6.90;;;;;;;21.45;53.54;101031.56;3576512;40;20092;-61
2022/06/05 07:55:23;;;;;;;9.52;7.03;;;;;;;21.80;53.93;101046.13;3578704;40;20452;-61
2022/06/05 07:57:48;;;;;;;10.95;7.47;;;;;;;21.81;53.60;101042.38;3577461;40;20200;-62
2022/06/05 08:00:15;;;;;;;11.07;7.45;;;;;;;21.86;53.20;101050.97;3577373;40;20056;-60
2022/06/05 08:02:41;;;;;;;8.18;7.30;;;;;;;21.77;53.66;101002.69;3577099;40;20346;-58
2022/06/05 08:05:09;;;;;;;8.48;7.07;;;;;;;22.06;53.17;101032.41;3576763;40;20059;-61
2022/06/05 08:07:36;;;;;;;8.60;7.70;;;;;;;22.17;52.44;101031.25;3579638;40;20056;-61
2022/06/05 08:10:04;;;;;;;8.48;7.57;;;;;;;22.21;52.51;101036.25;3578976;40;20049;-60
2022/06/05 08:12:34;;;;;;;8.82;7.03;;;;;;;22.28;53.11;101033.72;3578815;40;20056;-60
2022/06/05 08:15:08;;;;;;;10.38;7.05;;;;;;;22.51;53.18;101031.19;3577479;40;20054;-61
2022/06/05 08:17:36;;;;;;;7.97;6.82;;;;;;;22.76;52.33;101025.78;3579608;40;20067;-60
2022/06/05 08:20:05;;;;;;;9.05;7.35;;;;;;;23.21;52.29;101025.28;3582886;40;20052;-60
2022/06/05 08:22:31;;;;;;;8.20;7.40;;;;;;;23.60;50.33;101024.56;3580398;40;20056;-62
2022/06/05 08:24:57;;;;;;;8.10;7.30;;;;;;;23.82;49.17;101012.88;3580145;40;20044;-60
2022/06/05 08:27:27;;;;;;;10.02;6.93;;;;;;;23.81;49.70;101008.38;3581020;40;20355;-64
2022/06/05 08:29:58;;;;;;;9.07;7.60;;;;;;;23.84;49.43;101013.53;3581236;40;20056;-61
2022/06/05 08:32:28;;;;;;;9.68;7.70;;;;;;;23.85;49.74;101012.50;3577238;40;20068;-62
2022/06/05 08:34:54;;;;;;;7.95;7.18;;;;;;;23.82;50.04;101010.13;3578268;40;20059;-59
2022/06/05 08:44:05;;;;;;;9.48;7.75;;;;;;;23.92;49.25;101020.03;3577652;40;20063;-60
2022/06/05 08:47:03;;;;;;;7.93;7.13;;;;;;;23.77;49.50;101039.97;3578295;40;20172;-61
2022/06/05 08:49:44;;;;;;;8.82;7.93;;;;;;;23.73;49.52;101026.81;3586471;39;20050;-62
2022/06/05 08:52:27;;;;;;;8.40;7.60;;;;;;;23.71;50.39;101040.69;3579565;40;20101;-61
2022/06/05 08:55:24;;;;;;;9.20;8.17;;;;;;;23.48;50.05;101036.94;3579097;40;20041;-61
2022/06/05 08:58:00;;;;;;;11.65;8.43;;;;;;;23.36;51.15;101042.78;3579630;40;20320;-60
2022/06/05 09:00:54;;;;;;;9.45;8.48;;;;;;;23.25;51.49;101023.94;3576736;40;20045;-62
2022/06/05 09:03:33;;;;;;;11.30;8.90;;;;;;;23.14;51.06;101029.75;3578835;39;21377;-60
2022/06/05 09:06:33;;;;;;;9.60;8.00;;;;;;;23.05;51.46;101044.50;3581492;40;20383;-61
2022/06/05 09:09:06;;;;;;;9.25;8.35;;;;;;;22.89;52.15;101026.97;3577719;40;20055;-62
2022/06/05 09:11:52;;;;;;;10.55;8.73;;;;;;;22.86;52.35;101029.19;3581668;40;20075;-61
2022/06/05 09:14:42;;;;;;;10.05;9.05;;;;;;;22.76;52.54;101034.84;3576216;40;20511;-62
2022/06/05 09:17:20;;;;;;;9.65;8.70;;;;;;;22.64;53.53;101025.22;3578482;40;20068;-61
2022/06/05 09:19:50;;;;;;;8.70;7.82;;;;;;;22.64;53.82;101030.72;3579812;40;20064;-61
2022/06/05 09:22:32;;;;;;;8.77;7.97;;;;;;;22.63;53.69;101029.00;3578629;40;20185;-62
2022/06/05 09:25:24;;;;;;;8.88;8.07;;;;;;;22.63;54.10;101029.00;3576239;40;20130;-62
2022/06/05 09:27:56;;;;;;;10.13;8.05;;;;;;;22.53;53.92;101023.69;3577381;40;20064;-61
2022/06/05 09:30:50;;;;;;;10.80;8.50;;;;;;;22.47;54.09;101021.63;3575347;40;20071;-60
2022/06/05 09:33:27;;;;;;;8.57;7.68;;;;;;;22.51;55.06;101020.25;3575057;40;20063;-61
2022/06/05 09:36:11;;;;;;;9.18;8.23;;;;;;;22.43;54.30;101018.34;3578482;40;20048;-61
2022/06/05 09:38:57;;;;;;;8.90;7.97;;;;;;;22.41;55.25;101014.91;3579167;40;20384;-63
2022/06/05 09:41:57;;;;;;;8.98;8.10;;;;;;;22.31;55.22;100992.31;3577052;40;20068;-61
2022/06/05 09:45:11;;;;;;;9.23;8.30;;;;;;;22.42;55.14;101008.44;3579546;40;20069;-62
2022/06/05 09:48:12;;;;;;;11.00;9.75;;;;;;;22.33;55.27;100992.13;3580577;40;20115;-60
2022/06/05 09:50:38;;;;;;;10.38;8.50;;;;;;;22.29;55.29;100994.34;3581480;40;20052;-59
2022/06/05 09:53:04;;;;;;;10.50;8.45;;;;;;;22.35;56.36;100990.94;3580305;40;20055;-61
2022/06/05 09:56:21;;;;;;;10.25;8.57;;;;;;;22.34;55.75;100986.50;3580461;40;20057;-61
2022/06/05 09:59:18;;;;;;;8.85;7.95;;;;;;;22.28;56.58;100978.94;3577785;40;20066;-61
2022/06/05 10:01:59;;;;;;;10.75;9.70;;;;;;;22.33;57.11;100973.81;3580488;40;20051;-62
2022/06/05 10:04:33;;;;;;;9.55;8.60;;;;;;;22.27;58.44;100971.75;3580120;40;20117;-61
2022/06/05 10:07:23;;;;;;;10.00;9.00;;;;;;;22.27;59.04;100963.53;3579549;40;20125;-60
2022/06/05 10:09:49;;;;;;;10.18;8.68;;;;;;;22.30;59.05;100973.31;3579823;40;20056;-61
2022/06/05 10:12:33;;;;;;;12.13;10.98;;;;;;;22.23;59.66;100967.63;3579015;40;20056;-61
2022/06/05 10:15:27;;;;;;;;;;;;;;;22.16;59.41;100969.31;3578179;40;20057;-61
2022/06/05 10:18:04;;;;;;;11.18;8.82;;;;;;;22.01;60.74;100939.81;3587483;40;20307;-61
2022/06/05 10:21:08;;;;;;;11.48;10.32;;;;;;;22.20;60.85;100965.22;3580055;40;20054;-62
2022/06/05 10:23:51;;;;;;;;;;;;;;;22.16;62.23;100969.31;3580783;40;20060;-66
2022/06/05 10:26:29;;;;;;;11.30;10.20;;;;;;;22.16;61.99;100963.84;3580016;40;20007;-66
2022/06/05 10:29:16;;;;;;;10.38;9.38;;;;;;;22.17;63.05;100958.22;3578597;40;20049;-66
2022/06/05 10:31:58;;;;;;;15.10;10.50;;;;;;;22.05;63.36;100958.66;3580036;40;20096;-66
2022/06/05 10:35:02;;;;;;;11.32;10.23;;;;;;;22.09;63.86;100962.78;3580940;40;20169;-66
2022/06/05 10:37:39;;;;;;;12.30;10.25;;;;;;;21.91;62.92;100957.41;3578102;40;21103;-66
2022/06/05 10:40:15;;;;;;;12.45;10.88;;;;;;;21.89;65.51;100954.84;3576252;40;20059;-64
2022/06/05 10:43:26;;;;;;;11.23;10.10;;;;;;;21.86;65.42;100949.69;3577319;40;20083;-65
2022/06/05 10:46:24;;;;;;;11.80;10.38;;;;;;;21.81;65.26;100952.06;3574337;40;20346;-65
2022/06/05 10:49:10;;;;;;;12.40;11.20;;;;;;;21.74;66.71;100959.22;3580670;40;20336;-64
2022/06/05 10:51:48;;;;;;;12.98;11.10;;;;;;;21.51;66.63;100929.72;3580838;40;20052;-65
2022/06/05 10:54:14;;;;;;;12.95;11.70;;;;;;;21.58;67.19;100956.41;3578919;40;20086;-64
2022/06/05 10:57:11;;;;;;;11.95;10.85;;;;;;;21.48;68.61;100951.91;3576442;40;20064;-67
2022/06/05 10:59:57;;;;;;;12.60;11.45;;;;;;;21.36;69.35;100955.09;3578488;40;20059;-64
2022/06/05 11:03:11;;;;;;;13.90;12.60;;;;;;;21.19;69.70;100945.91;3578663;40;20431;-63
2022/06/05 11:06:35;;;;;;;16.25;13.52;;;;;;;21.15;69.82;100953.53;3575790;40;20089;-64
2022/06/05 11:09:28;;;;;;;17.27;14.15;;;;;;;21.05;72.11;100958.28;3578020;40;20057;-67
2022/06/05 11:15:46;;;;;;;21.33;18.83;;;;;;;20.71;75.85;100958.16;3577795;40;20067;-67
2022/06/05 11:18:29;;;;;;;19.77;17.95;;;;;;;20.58;77.99;100953.97;3576749;40;20107;-67
2022/06/05 11:21:00;;;;;;;22.83;20.63;;;;;;;20.52;79.32;100943.69;3577915;40;20056;-67
2022/06/05 11:23:35;;;;;;;21.73;19.55;;;;;;;20.43;79.67;100928.19;3577844;40;20130;-68
2022/06/05 11:26:22;;;;;;;20.85;18.75;;;;;;;20.37;79.92;100935.13;3581016;40;20060;-67
2022/06/05 11:29:34;;;;;;;20.25;18.15;;;;;;;20.26;78.87;100924.44;3585820;40;20067;-68
2022/06/05 11:32:20;;;;;;;21.23;18.95;;;;;;;20.22;80.61;100927.66;3577806;40;20044;-68
2022/06/05 11:35:31;;;;;;;20.92;19.02;;;;;;;20.09;80.38;100930.75;3588536;39;20040;-67
2022/06/05 11:38:26;;;;;;;24.92;21.80;;;;;;;20.00;81.68;100927.06;3577705;40;20053;-67
2022/06/05 11:41:20;;;;;;;25.02;22.40;;;;;;;19.92;84.12;100927.00;3584259;40;20055;-67
2022/06/05 11:44:26;;;;;;;26.80;24.02;;;;;;;19.86;84.71;100911.22;3581523;40;20379;-68
2022/06/05 11:47:04;;;;;;;24.65;22.38;;;;;;;18.94;83.64;100771.22;3579101;40;20134;-67
2022/06/05 11:50:01;;;;;;;26.10;23.70;;;;;;;19.74;84.49;100917.91;3579006;40;20054;-66
2022/06/05 11:52:41;;;;;;;25.48;23.08;;;;;;;19.64;84.87;100905.19;3578801;40;20053;-65
2022/06/05 11:55:12;;;;;;;29.23;25.70;;;;;;;19.82;86.45;100915.25;3578494;39;20315;-64
2022/06/05 11:57:56;;;;;;;26.55;24.15;;;;;;;19.85;86.31;100920.41;3578554;40;20122;-63
2022/06/05 12:00:59;;;;;;;26.83;24.30;;;;;;;19.87;86.09;100919.25;3582263;40;20082;-62
2022/06/05 12:03:46;;;;;;;24.00;21.83;;;;;;;19.81;84.00;100910.81;3585918;40;20052;-65
2022/06/05 12:06:38;;;;;;;23.30;21.08;;;;;;;19.78;84.05;100916.59;3587079;39;20051;-66
2022/06/05 12:09:22;;;;;;;24.67;22.48;;;;;;;19.76;85.16;100908.56;3581597;40;20052;-65
2022/06/05 12:12:05;;;;;;;24.55;22.25;;;;;;;19.74;85.20;100915.19;3580232;40;20562;-66
2022/06/05 12:14:42;;;;;;;;;;;;;;;19.56;85.32;100874.19;3580999;40;20092;-64
2022/06/05 12:17:28;;;;;;;25.98;23.48;;;;;;;19.70;84.88;100910.03;3579255;40;19932;-63
2022/06/05 12:20:28;;;;;;;24.65;22.35;;;;;;;19.68;85.82;100900.28;3579405;40;20112;-65
2022/06/05 12:23:25;;;;;;;26.88;24.27;;;;;;;19.64;85.50;100899.72;3585710;39;20590;-63